createdAt,value
2022-10-01T00:01:48.120Z,8.13
2022-10-01T00:06:19.484Z,8.55
2022-10-01T00:10:21.029Z,5.28
2022-10-01T00:14:22.890Z,5.80
2022-10-01T00:18:24.558Z,9.98
2022-10-01T00:22:26.124Z,8.52
2022-10-01T00:26:31.365Z,9.93
2022-10-01T00:30:37.253Z,10.05
2022-10-01T00:34:41.238Z,11.00
2022-10-01T00:38:42.773Z,12.00
2022-10-01T00:42:44.558Z,10.95
2022-10-01T00:46:46.571Z,10.38
2022-10-01T00:50:49.937Z,9.82
2022-10-01T00:55:03.627Z,8.65
2022-10-01T00:59:07.123Z,7.20
2022-10-01T01:03:11.029Z,8.20
2022-10-01T01:07:13.064Z,8.25
2022-10-01T01:11:33.193Z,9.05
2022-10-01T01:16:00.393Z,10.15
2022-10-01T01:20:06.352Z,6.63
2022-10-01T01:24:42.086Z,7.78
2022-10-01T01:28:50.616Z,8.80
2022-10-01T01:33:18.494Z,8.05
2022-10-01T01:37:26.751Z,7.70
2022-10-01T01:41:31.444Z,7.93
2022-10-01T01:45:40.077Z,6.05
2022-10-01T01:49:42.903Z,8.07
2022-10-01T01:53:44.784Z,8.68
2022-10-01T01:57:46.707Z,7.78
2022-10-01T02:01:49.582Z,7.70
2022-10-01T02:10:28.535Z,8.77
2022-10-01T02:14:47.467Z,7.88
2022-10-01T02:18:59.119Z,8.20
2022-10-01T02:23:06.217Z,6.35
2022-10-01T02:27:14.030Z,5.97
2022-10-01T02:31:18.090Z,6.53
2022-10-01T02:35:22.015Z,7.00
2022-10-01T02:39:27.137Z,7.60
2022-10-01T02:43:39.481Z,12.27
2022-10-01T02:47:51.120Z,8.98
2022-10-01T02:52:13.267Z,7.10
2022-10-01T02:56:35.476Z,8.00
2022-10-01T03:00:37.033Z,5.13
2022-10-01T03:04:38.654Z,6.18
2022-10-01T03:08:53.724Z,4.32
2022-10-01T03:12:55.931Z,4.93
2022-10-01T03:16:57.579Z,5.30
2022-10-01T03:20:59.162Z,4.47
2022-10-01T03:25:00.715Z,9.30
2022-10-01T03:29:04.729Z,5.10
2022-10-01T03:33:06.286Z,5.10
2022-10-01T03:37:27.909Z,4.88
2022-10-01T03:41:29.583Z,4.47
2022-10-01T03:45:31.126Z,3.60
2022-10-01T03:49:38.765Z,5.22
2022-10-01T03:53:40.279Z,3.78
2022-10-01T03:57:50.259Z,5.57
2022-10-01T04:01:51.900Z,5.45
2022-10-01T04:05:53.523Z,11.10
2022-10-01T04:09:55.152Z,6.20
2022-10-01T04:13:58.010Z,7.80
2022-10-01T04:18:02.303Z,6.07
2022-10-01T04:22:03.842Z,10.07
2022-10-01T04:26:05.572Z,8.45
2022-10-01T04:30:09.895Z,9.10
2022-10-01T04:34:11.636Z,9.55
2022-10-01T04:38:17.167Z,8.70
2022-10-01T04:42:19.588Z,7.85
2022-10-01T04:46:21.286Z,10.95
2022-10-01T04:50:25.634Z,9.45
2022-10-01T04:54:27.202Z,10.23
2022-10-01T04:58:28.879Z,9.30
2022-10-01T05:02:30.648Z,11.52
2022-10-01T05:06:32.215Z,12.77
2022-10-01T05:10:34.016Z,9.25
2022-10-01T05:14:38.983Z,7.72
2022-10-01T05:18:40.633Z,7.95
2022-10-01T05:22:42.228Z,7.20
2022-10-01T05:26:43.787Z,10.10
2022-10-01T05:30:45.783Z,6.82
2022-10-01T05:34:52.662Z,7.25
2022-10-01T05:38:55.167Z,6.72
2022-10-01T05:43:00.291Z,7.00
2022-10-01T05:47:02.246Z,9.60
2022-10-01T05:51:06.889Z,6.45
2022-10-01T05:55:09.282Z,7.40
2022-10-01T05:59:12.068Z,6.30
2022-10-01T06:03:15.103Z,6.45
2022-10-01T06:11:18.943Z,8.07
2022-10-01T06:15:20.568Z,7.40
2022-10-01T06:19:22.188Z,6.95
2022-10-01T06:23:26.148Z,8.88
2022-10-01T06:27:27.790Z,8.95
2022-10-01T06:31:29.782Z,9.60
2022-10-01T06:35:32.944Z,8.33
2022-10-01T06:43:36.422Z,10.95
2022-10-01T06:47:38.257Z,7.82
2022-10-01T06:51:58.727Z,8.88
2022-10-01T06:56:05.619Z,9.02
2022-10-01T07:00:08.087Z,9.85
2022-10-01T07:04:10.644Z,9.82
2022-10-01T07:08:13.162Z,12.32
2022-10-01T07:12:14.772Z,10.38
2022-10-01T07:16:16.591Z,12.43
2022-10-01T07:20:20.741Z,9.13
2022-10-01T07:24:22.711Z,11.35
2022-10-01T07:28:27.320Z,9.60
2022-10-01T07:32:31.620Z,14.35
2022-10-01T07:36:33.435Z,10.90
2022-10-01T07:40:35.144Z,9.55
2022-10-01T07:44:36.750Z,9.75
2022-10-01T07:48:38.564Z,9.25
2022-10-01T07:52:40.168Z,10.98
2022-10-01T07:56:41.910Z,11.68
2022-10-01T08:00:43.631Z,7.65
2022-10-01T08:05:03.531Z,9.77
2022-10-01T08:09:06.190Z,9.13
2022-10-01T08:13:14.971Z,9.00
2022-10-01T08:17:16.676Z,6.85
2022-10-01T08:21:18.271Z,8.45
2022-10-01T08:25:19.949Z,7.43
2022-10-01T08:29:22.204Z,7.32
2022-10-01T08:33:23.749Z,7.37
2022-10-01T08:37:27.407Z,7.40
2022-10-01T08:41:54.878Z,7.57
2022-10-01T08:46:00.584Z,8.40
2022-10-01T08:50:39.616Z,6.38
2022-10-01T08:54:54.906Z,7.70
2022-10-01T08:59:03.728Z,8.85
2022-10-01T09:03:06.702Z,10.48
2022-10-01T09:11:43.789Z,4.93
2022-10-01T09:15:56.340Z,4.40
2022-10-01T09:20:29.332Z,5.38
2022-10-01T09:24:40.841Z,5.75
2022-10-01T09:28:52.207Z,4.40
2022-10-01T09:33:11.680Z,3.67
2022-10-01T09:37:45.544Z,5.18
2022-10-01T09:41:48.383Z,7.32
2022-10-01T09:45:51.607Z,4.28
2022-10-01T09:49:53.482Z,7.38
2022-10-01T09:54:09.321Z,6.47
2022-10-01T09:58:18.486Z,6.53
2022-10-01T10:02:27.620Z,5.95
2022-10-01T10:11:01.823Z,4.53
2022-10-01T10:15:09.801Z,4.32
2022-10-01T10:19:28.354Z,5.45
2022-10-01T10:23:30.076Z,5.25
2022-10-01T10:27:37.874Z,4.35
2022-10-01T10:31:43.651Z,4.15
2022-10-01T10:35:45.296Z,4.00
2022-10-01T10:39:51.214Z,4.47
2022-10-01T10:44:04.791Z,4.50
2022-10-01T10:48:14.622Z,3.92
2022-10-01T10:52:30.176Z,4.95
2022-10-01T10:56:32.244Z,3.72
2022-10-01T11:00:43.891Z,4.50
2022-10-01T11:04:46.156Z,3.22
2022-10-01T11:08:57.493Z,3.47
2022-10-01T11:13:32.822Z,5.28
2022-10-01T11:17:58.701Z,5.15
2022-10-01T11:22:12.943Z,5.13
2022-10-01T11:26:29.592Z,4.57
2022-10-01T11:31:12.831Z,5.20
2022-10-01T11:35:28.509Z,7.05
2022-10-01T11:39:34.339Z,5.65
2022-10-01T11:43:57.650Z,7.47
2022-10-01T11:52:14.991Z,4.18
2022-10-01T11:56:40.588Z,4.43
2022-10-01T12:00:48.453Z,4.68
2022-10-01T12:04:58.324Z,5.13
2022-10-01T12:09:16.929Z,4.43
2022-10-01T12:13:36.712Z,5.80
2022-10-01T12:17:46.928Z,6.97
2022-10-01T12:21:56.724Z,4.47
2022-10-01T12:26:13.420Z,5.35
2022-10-01T12:30:23.638Z,3.83
2022-10-01T12:34:54.247Z,5.43
2022-10-01T12:39:35.994Z,6.45
2022-10-01T12:43:43.571Z,5.28
2022-10-01T12:47:50.099Z,4.22
2022-10-01T12:52:18.167Z,5.70
2022-10-01T12:56:39.173Z,7.57
2022-10-01T13:01:17.850Z,2.92
2022-10-01T13:05:49.571Z,3.40
2022-10-01T13:10:06.978Z,4.63
2022-10-01T13:14:19.078Z,2.38
2022-10-01T13:19:05.222Z,1.98
2022-10-01T13:23:24.148Z,4.03
2022-10-01T13:27:46.745Z,3.78
2022-10-01T13:32:01.394Z,2.08
2022-10-01T13:36:05.818Z,1.90
2022-10-01T13:40:24.546Z,2.75
2022-10-01T13:44:34.655Z,3.53
2022-10-01T13:48:44.443Z,1.88
2022-10-01T13:52:46.085Z,3.85
2022-10-01T13:56:47.737Z,2.55
2022-10-01T14:05:03.696Z,2.72
2022-10-01T14:09:14.252Z,2.40
2022-10-01T14:13:34.616Z,4.28
2022-10-01T14:17:36.941Z,2.42
2022-10-01T14:21:45.308Z,4.60
2022-10-01T14:25:49.260Z,2.55
2022-10-01T14:30:02.666Z,3.35
2022-10-01T14:34:28.259Z,2.15
2022-10-01T14:38:30.955Z,5.65
2022-10-01T14:42:32.516Z,3.50
2022-10-01T14:46:35.858Z,3.15
2022-10-01T14:50:38.357Z,2.95
2022-10-01T14:54:47.316Z,3.07
2022-10-01T14:58:55.606Z,2.53
2022-10-01T15:03:06.156Z,2.00
2022-10-01T15:07:13.764Z,2.45
2022-10-01T15:11:29.128Z,3.65
2022-10-01T15:15:39.758Z,3.15
2022-10-01T15:19:45.018Z,3.35
2022-10-01T15:23:48.311Z,2.20
2022-10-01T15:27:50.051Z,2.92
2022-10-01T15:31:55.816Z,5.07
2022-10-01T15:36:16.836Z,1.92
2022-10-01T15:40:27.357Z,3.83
2022-10-01T15:44:40.843Z,2.80
2022-10-01T15:48:42.652Z,3.83
2022-10-01T15:52:50.746Z,4.70
2022-10-01T15:56:52.674Z,2.97
2022-10-01T16:01:26.533Z,2.80
2022-10-01T16:05:45.700Z,3.92
2022-10-01T16:09:56.836Z,2.88
2022-10-01T16:14:44.190Z,4.07
2022-10-01T16:18:53.979Z,3.90
2022-10-01T16:23:34.545Z,4.07
2022-10-01T16:28:21.558Z,6.90
2022-10-01T16:32:23.274Z,3.72
2022-10-01T16:36:26.329Z,5.00
2022-10-01T16:40:30.832Z,4.32
2022-10-01T16:44:34.286Z,7.97
2022-10-01T16:48:35.819Z,5.15
2022-10-01T16:52:38.069Z,6.15
2022-10-01T16:56:41.348Z,5.87
2022-10-01T17:00:42.999Z,3.78
2022-10-01T17:04:44.762Z,4.53
2022-10-01T17:08:46.298Z,3.55
2022-10-01T17:12:48.367Z,4.50
2022-10-01T17:16:50.990Z,6.40
2022-10-01T17:20:52.696Z,7.13
2022-10-01T17:24:54.263Z,5.57
2022-10-01T17:28:55.977Z,5.18
2022-10-01T17:33:00.041Z,5.15
2022-10-01T17:37:01.677Z,8.77
2022-10-01T17:41:03.787Z,6.93
2022-10-01T17:45:08.869Z,5.97
2022-10-01T17:49:13.017Z,3.53
2022-10-01T17:53:15.223Z,5.15
2022-10-01T17:57:17.332Z,4.53
2022-10-01T18:01:21.084Z,5.13
2022-10-01T18:05:22.838Z,2.78
2022-10-01T18:09:25.266Z,6.95
2022-10-01T18:13:26.878Z,8.15
2022-10-01T18:17:29.297Z,8.02
2022-10-01T18:21:32.800Z,3.90
2022-10-01T18:25:34.487Z,6.22
2022-10-01T18:29:36.168Z,4.32
2022-10-01T18:33:39.261Z,7.15
2022-10-01T18:37:46.727Z,4.47
2022-10-01T18:41:49.455Z,8.45
2022-10-01T18:46:21.041Z,5.38
2022-10-01T18:50:48.631Z,9.85
2022-10-01T18:55:21.385Z,5.65
2022-10-01T18:59:52.526Z,4.60
2022-10-01T19:04:03.357Z,6.47
2022-10-01T19:08:46.707Z,7.85
2022-10-01T19:13:13.909Z,4.78
2022-10-01T19:18:00.557Z,13.70
2022-10-01T19:22:05.116Z,6.28
2022-10-01T19:26:13.950Z,6.05
2022-10-01T19:30:17.714Z,4.72
2022-10-01T19:34:41.527Z,8.10
2022-10-01T19:38:46.456Z,6.55
2022-10-01T19:43:01.667Z,10.55
2022-10-01T19:47:23.616Z,6.63
2022-10-01T19:51:30.257Z,7.22
2022-10-01T19:55:38.788Z,8.27
2022-10-01T19:59:40.897Z,6.60
2022-10-01T20:04:02.240Z,7.63
2022-10-01T20:08:29.907Z,7.38
2022-10-01T20:12:31.423Z,6.65
2022-10-01T20:16:47.560Z,5.35
2022-10-01T20:21:37.845Z,7.43
2022-10-01T20:26:01.304Z,12.10
2022-10-01T20:30:05.969Z,8.93
2022-10-01T20:34:18.027Z,12.52
2022-10-01T20:38:24.497Z,14.73
2022-10-01T20:42:34.726Z,10.70
2022-10-01T20:46:43.401Z,10.40
2022-10-01T20:50:48.949Z,7.53
2022-10-01T20:54:53.044Z,9.35
2022-10-01T20:59:02.257Z,14.68
2022-10-01T21:03:22.304Z,11.02
2022-10-01T21:07:48.878Z,9.40
2022-10-01T21:11:59.640Z,10.85
2022-10-01T21:16:38.235Z,8.85
2022-10-01T21:21:16.636Z,12.02
2022-10-01T21:25:44.174Z,11.27
2022-10-01T21:30:07.573Z,10.05
2022-10-01T21:34:19.763Z,9.50
2022-10-01T21:38:32.630Z,9.97
2022-10-01T21:43:14.708Z,9.70
2022-10-01T21:47:30.436Z,16.67
2022-10-01T21:51:58.552Z,14.73
2022-10-01T21:56:23.974Z,15.30
2022-10-01T22:00:26.425Z,12.43
2022-10-01T22:04:40.056Z,11.38
2022-10-01T22:09:13.934Z,14.77
2022-10-01T22:13:30.709Z,12.23
2022-10-01T22:17:33.925Z,15.73
2022-10-01T22:21:42.163Z,12.88
2022-10-01T22:25:51.265Z,19.38
2022-10-01T22:30:00.663Z,13.73
2022-10-01T22:34:09.377Z,16.70
2022-10-01T22:38:19.974Z,16.80
2022-10-01T22:42:30.349Z,19.30
2022-10-01T22:46:56.130Z,19.23
2022-10-01T22:51:20.055Z,14.82
2022-10-01T22:55:47.312Z,16.75
2022-10-01T23:00:01.547Z,16.45
2022-10-01T23:04:19.175Z,16.42
2022-10-01T23:08:43.393Z,18.58
2022-10-01T23:13:25.835Z,21.50
2022-10-01T23:17:40.824Z,21.88
2022-10-01T23:22:13.125Z,18.35
2022-10-01T23:26:28.352Z,26.02
2022-10-01T23:31:08.848Z,22.73
2022-10-01T23:35:21.796Z,18.52
2022-10-01T23:39:51.264Z,17.70
2022-10-01T23:43:57.246Z,18.92
2022-10-01T23:48:21.214Z,15.68
2022-10-01T23:52:31.715Z,29.58
2022-10-01T23:56:51.881Z,20.25
